createdAt,value
2023-05-13T00:00:27.824Z,100321.88
2023-05-13T00:00:59.337Z,100321.31
2023-05-13T00:01:30.827Z,100325.69
2023-05-13T00:02:03.537Z,100316.44
2023-05-13T00:02:35.102Z,100321.88
2023-05-13T00:03:09.648Z,100329.75
2023-05-13T00:03:41.352Z,100320.25
2023-05-13T00:04:12.988Z,100324.31
2023-05-13T00:04:47.308Z,100323.50
2023-05-13T00:05:21.823Z,100323.50
2023-05-13T00:05:55.566Z,100321.59
2023-05-13T00:06:29.708Z,100317.78
2023-05-13T00:07:01.286Z,100328.94
2023-05-13T00:07:35.751Z,100320.50
2023-05-13T00:08:10.178Z,100315.06
2023-05-13T00:08:41.714Z,100319.97
2023-05-13T00:09:13.354Z,100320.78
2023-05-13T00:09:44.878Z,100324.31
2023-05-13T00:10:23.130Z,100313.97
2023-05-13T00:10:59.961Z,100323.22
2023-05-13T00:11:31.461Z,100317.25
2023-05-13T00:12:03.008Z,100316.41
2023-05-13T00:12:37.280Z,100312.59
2023-05-13T00:13:10.276Z,100314.53
2023-05-13T00:13:41.795Z,100312.34
2023-05-13T00:14:15.174Z,100311.25
2023-05-13T00:14:48.854Z,100311.53
2023-05-13T00:15:20.404Z,100306.06
2023-05-13T00:15:54.818Z,100310.72
2023-05-13T00:16:26.369Z,100313.16
2023-05-13T00:16:57.943Z,100313.97
2023-05-13T00:17:29.506Z,100312.06
2023-05-13T00:18:03.306Z,100312.88
2023-05-13T00:18:37.852Z,100311.50
2023-05-13T00:19:09.550Z,100306.91
2023-05-13T00:19:41.108Z,100316.41
2023-05-13T00:20:13.406Z,100313.97
2023-05-13T00:20:47.880Z,100314.50
2023-05-13T00:21:22.098Z,100310.72
2023-05-13T00:21:53.629Z,100306.91
2023-05-13T00:22:28.026Z,100314.81
2023-05-13T00:23:01.455Z,100321.31
2023-05-13T00:23:33.021Z,100314.22
2023-05-13T00:24:05.959Z,100314.22
2023-05-13T00:24:37.610Z,100314.81
2023-05-13T00:25:09.138Z,100315.03
2023-05-13T00:25:40.683Z,100314.75
2023-05-13T00:26:14.917Z,100314.50
2023-05-13T00:26:49.146Z,100319.38
2023-05-13T00:27:24.687Z,100311.22
2023-05-13T00:27:56.161Z,100312.59
2023-05-13T00:28:27.615Z,100313.41
2023-05-13T00:29:01.981Z,100318.28
2023-05-13T00:29:37.528Z,100315.84
2023-05-13T00:30:09.025Z,100323.19
2023-05-13T00:30:49.285Z,100313.69
2023-05-13T00:31:23.080Z,100316.13
2023-05-13T00:31:54.746Z,100318.31
2023-05-13T00:32:26.331Z,100321.03
2023-05-13T00:32:58.013Z,100320.47
2023-05-13T00:33:29.520Z,100315.31
2023-05-13T00:34:01.011Z,100320.47
2023-05-13T00:34:32.549Z,100319.94
2023-05-13T00:35:04.047Z,100317.22
2023-05-13T00:35:35.527Z,100319.38
2023-05-13T00:36:07.158Z,100320.75
2023-05-13T00:36:38.709Z,100319.66
2023-05-13T00:37:13.199Z,100320.75
2023-05-13T00:37:44.762Z,100319.13
2023-05-13T00:38:18.930Z,100317.22
2023-05-13T00:38:56.242Z,100322.94
2023-05-13T00:39:27.783Z,100317.22
2023-05-13T00:40:02.895Z,100323.47
2023-05-13T00:40:43.383Z,100322.66
2023-05-13T00:41:18.944Z,100316.38
2023-05-13T00:41:52.831Z,100313.94
2023-05-13T00:42:24.314Z,100309.34
2023-05-13T00:42:55.820Z,100316.38
2023-05-13T00:43:27.340Z,100319.13
2023-05-13T00:44:01.814Z,100312.31
2023-05-13T00:44:45.267Z,100315.59
2023-05-13T00:45:16.809Z,100311.53
2023-05-13T00:45:49.490Z,100314.78
2023-05-13T00:46:28.599Z,100312.34
2023-05-13T00:47:00.222Z,100317.22
2023-05-13T00:47:37.579Z,100317.50
2023-05-13T00:48:09.133Z,100311.53
2023-05-13T00:48:40.626Z,100318.03
2023-05-13T00:49:12.106Z,100312.34
2023-05-13T00:49:44.809Z,100312.34
2023-05-13T00:50:17.465Z,100312.34
2023-05-13T00:50:48.994Z,100317.78
2023-05-13T00:51:29.232Z,100321.59
2023-05-13T00:52:00.770Z,100317.22
2023-05-13T00:52:35.112Z,100317.22
2023-05-13T00:53:06.636Z,100315.06
2023-05-13T00:53:41.182Z,100317.78
2023-05-13T00:54:21.322Z,100318.59
2023-05-13T00:54:52.842Z,100317.22
2023-05-13T00:55:24.420Z,100320.22
2023-05-13T00:56:17.345Z,100318.84
2023-05-13T00:56:48.930Z,100313.41
2023-05-13T00:57:20.700Z,100312.31
2023-05-13T00:57:59.080Z,100310.16
2023-05-13T00:58:30.710Z,100312.88
2023-05-13T00:59:06.540Z,100318.88
2023-05-13T00:59:40.850Z,100315.88
2023-05-13T01:00:15.392Z,100313.41
2023-05-13T01:00:46.968Z,100316.69
2023-05-13T01:01:21.307Z,100320.75
2023-05-13T01:01:55.522Z,100317.78
2023-05-13T01:02:29.819Z,100320.50
2023-05-13T01:03:03.920Z,100319.41
2023-05-13T01:03:42.059Z,100319.41
2023-05-13T01:04:16.407Z,100317.50
2023-05-13T01:04:49.320Z,100318.31
2023-05-13T01:05:36.040Z,100325.38
2023-05-13T01:06:07.538Z,100316.94
2023-05-13T01:06:39.085Z,100315.03
2023-05-13T01:07:15.739Z,100320.50
2023-05-13T01:07:57.423Z,100318.59
2023-05-13T01:08:31.018Z,100323.22
2023-05-13T01:09:04.156Z,100318.31
2023-05-13T01:09:38.452Z,100319.13
2023-05-13T01:10:10.114Z,100315.31
2023-05-13T01:10:45.762Z,100322.91
2023-05-13T01:11:20.035Z,100321.28
2023-05-13T01:11:51.604Z,100321.81
2023-05-13T01:12:25.771Z,100322.66
2023-05-13T01:13:02.004Z,100317.22
2023-05-13T01:13:33.593Z,100317.75
2023-05-13T01:14:07.854Z,100326.19
2023-05-13T01:14:39.381Z,100326.47
2023-05-13T01:15:13.735Z,100327.00
2023-05-13T01:15:47.616Z,100332.44
2023-05-13T01:16:26.724Z,100323.19
2023-05-13T01:17:15.827Z,100327.00
2023-05-13T01:17:47.393Z,100326.47
2023-05-13T01:18:24.511Z,100325.91
2023-05-13T01:18:58.833Z,100323.47
2023-05-13T01:19:34.475Z,100328.91
2023-05-13T01:20:14.480Z,100326.16
2023-05-13T01:20:46.131Z,100334.06
2023-05-13T01:21:30.897Z,100331.63
2023-05-13T01:22:02.418Z,100326.47
2023-05-13T01:22:35.162Z,100324.56
2023-05-13T01:23:13.396Z,100321.56
2023-05-13T01:23:44.869Z,100329.44
2023-05-13T01:24:18.258Z,100324.00
2023-05-13T01:25:01.986Z,100329.16
2023-05-13T01:25:37.659Z,100319.66
2023-05-13T01:26:09.312Z,100327.00
2023-05-13T01:26:41.163Z,100322.66
2023-05-13T01:27:14.724Z,100326.47
2023-05-13T01:27:49.073Z,100327.00
2023-05-13T01:28:27.708Z,100325.66
2023-05-13T01:28:59.188Z,100325.91
2023-05-13T01:29:33.066Z,100324.00
2023-05-13T01:30:04.606Z,100322.38
2023-05-13T01:30:36.354Z,100324.28
2023-05-13T01:31:13.970Z,100328.34
2023-05-13T01:31:54.492Z,100321.28
2023-05-13T01:32:25.998Z,100323.19
2023-05-13T01:32:57.678Z,100327.00
2023-05-13T01:33:30.327Z,100327.25
2023-05-13T01:34:07.294Z,100326.97
2023-05-13T01:34:42.452Z,100328.06
2023-05-13T01:35:21.217Z,100332.97
2023-05-13T01:35:52.790Z,100329.97
2023-05-13T01:36:25.345Z,100334.31
2023-05-13T01:36:56.872Z,100329.16
2023-05-13T01:37:42.358Z,100335.94
2023-05-13T01:38:13.916Z,100334.88
2023-05-13T01:38:45.445Z,100332.97
2023-05-13T01:39:18.137Z,100325.38
2023-05-13T01:39:53.930Z,100326.44
2023-05-13T01:40:32.730Z,100330.25
2023-05-13T01:41:09.908Z,100328.59
2023-05-13T01:41:41.448Z,100328.59
2023-05-13T01:42:19.802Z,100324.81
2023-05-13T01:42:52.580Z,100327.53
2023-05-13T01:43:30.003Z,100327.53
2023-05-13T01:44:08.496Z,100327.25
2023-05-13T01:44:41.174Z,100330.81
2023-05-13T01:45:18.658Z,100332.97
2023-05-13T01:45:52.932Z,100327.00
2023-05-13T01:46:24.577Z,100333.25
2023-05-13T01:46:56.269Z,100330.78
2023-05-13T01:47:27.918Z,100333.50
2023-05-13T01:48:02.599Z,100331.34
2023-05-13T01:48:42.900Z,100335.41
2023-05-13T01:49:16.877Z,100330.25
2023-05-13T01:49:56.468Z,100334.88
2023-05-13T01:50:31.942Z,100340.03
2023-05-13T01:51:05.809Z,100340.84
2023-05-13T01:51:37.348Z,100341.38
2023-05-13T01:52:11.428Z,100338.41
2023-05-13T01:52:42.971Z,100333.78
2023-05-13T01:53:18.064Z,100342.78
2023-05-13T01:53:49.752Z,100332.97
2023-05-13T01:54:22.850Z,100338.16
2023-05-13T01:54:54.347Z,100334.88
2023-05-13T01:55:28.827Z,100330.53
2023-05-13T01:56:00.364Z,100328.91
2023-05-13T01:56:34.861Z,100336.78
2023-05-13T01:57:06.395Z,100332.44
2023-05-13T01:57:37.813Z,100330.78
2023-05-13T01:58:11.830Z,100339.50
2023-05-13T01:58:43.396Z,100340.03
2023-05-13T01:59:17.040Z,100333.50
2023-05-13T01:59:48.697Z,100334.59
2023-05-13T02:00:20.342Z,100335.94
2023-05-13T02:00:52.004Z,100339.22
2023-05-13T02:01:24.743Z,100336.19
2023-05-13T02:01:56.232Z,100335.94
2023-05-13T02:02:27.861Z,100335.38
2023-05-13T02:03:04.643Z,100338.91
2023-05-13T02:03:36.585Z,100336.47
2023-05-13T02:04:08.196Z,100337.28
2023-05-13T02:04:41.834Z,100331.31
2023-05-13T02:05:15.045Z,100332.94
2023-05-13T02:05:46.607Z,100330.75
2023-05-13T02:06:18.358Z,100335.94
2023-05-13T02:06:49.889Z,100331.31
2023-05-13T02:07:23.291Z,100331.31
2023-05-13T02:08:21.424Z,100332.41
2023-05-13T02:09:01.601Z,100331.59
2023-05-13T02:09:34.534Z,100334.31
2023-05-13T02:10:05.948Z,100330.22
2023-05-13T02:10:37.430Z,100328.59
2023-05-13T02:11:08.909Z,100327.75
2023-05-13T02:11:40.355Z,100331.84
2023-05-13T02:12:11.763Z,100331.31
2023-05-13T02:12:43.200Z,100333.47
2023-05-13T02:13:14.664Z,100332.66
2023-05-13T02:13:46.123Z,100334.03
2023-05-13T02:14:17.686Z,100336.19
2023-05-13T02:14:49.206Z,100329.66
2023-05-13T02:15:20.767Z,100332.66
2023-05-13T02:15:52.266Z,100329.13
2023-05-13T02:16:23.798Z,100329.41
2023-05-13T02:16:55.529Z,100330.22
2023-05-13T02:17:27.144Z,100325.31
2023-05-13T02:17:58.657Z,100328.84
2023-05-13T02:18:30.163Z,100324.50
2023-05-13T02:19:01.804Z,100330.47
2023-05-13T02:19:33.383Z,100331.84
2023-05-13T02:20:04.907Z,100326.69
2023-05-13T02:20:36.391Z,100331.31
2023-05-13T02:21:07.835Z,100329.13
2023-05-13T02:21:39.278Z,100334.03
2023-05-13T02:22:10.778Z,100325.31
2023-05-13T02:22:42.238Z,100333.75
2023-05-13T02:23:13.676Z,100335.09
2023-05-13T02:23:45.220Z,100332.91
2023-05-13T02:24:16.718Z,100328.31
2023-05-13T02:24:48.284Z,100333.47
2023-05-13T02:25:19.712Z,100327.47
2023-05-13T02:25:51.248Z,100328.28
2023-05-13T02:26:22.655Z,100331.56
2023-05-13T02:26:54.079Z,100327.75
2023-05-13T02:27:25.554Z,100333.19
2023-05-13T02:27:57.005Z,100326.69
2023-05-13T02:28:28.423Z,100324.78
2023-05-13T02:28:59.828Z,100327.47
2023-05-13T02:29:31.430Z,100330.47
2023-05-13T02:30:02.894Z,100327.47
2023-05-13T02:30:34.324Z,100331.00
2023-05-13T02:31:05.729Z,100328.84
2023-05-13T02:31:37.218Z,100328.56
2023-05-13T02:32:08.718Z,100328.56
2023-05-13T02:32:40.304Z,100329.66
2023-05-13T02:33:11.809Z,100324.22
2023-05-13T02:33:43.285Z,100333.44
2023-05-13T02:34:14.736Z,100335.06
2023-05-13T02:34:46.172Z,100339.44
2023-05-13T02:35:17.565Z,100328.56
2023-05-13T02:35:48.997Z,100331.28
2023-05-13T02:36:20.420Z,100334.28
2023-05-13T02:36:51.873Z,100325.84
2023-05-13T02:37:23.306Z,100323.38
2023-05-13T02:37:54.695Z,100326.41
2023-05-13T02:38:26.150Z,100322.59
2023-05-13T02:38:57.593Z,100331.28
2023-05-13T02:39:29.064Z,100330.47
2023-05-13T02:40:00.617Z,100320.69
2023-05-13T02:40:32.237Z,100323.66
2023-05-13T02:41:03.666Z,100326.38
2023-05-13T02:41:35.160Z,100325.84
2023-05-13T02:42:06.610Z,100318.78
2023-05-13T02:42:38.011Z,100322.56
2023-05-13T02:43:09.465Z,100317.97
2023-05-13T02:43:40.915Z,100327.75
2023-05-13T02:44:12.336Z,100318.75
2023-05-13T02:44:43.837Z,100323.66
2023-05-13T02:45:15.507Z,100329.63
2023-05-13T02:45:50.056Z,100321.22
2023-05-13T02:46:21.603Z,100323.69
2023-05-13T02:46:53.008Z,100322.56
2023-05-13T02:47:24.424Z,100324.22
2023-05-13T02:47:55.927Z,100327.22
2023-05-13T02:48:27.390Z,100328.03
2023-05-13T02:48:58.801Z,100321.50
2023-05-13T02:49:30.253Z,100331.81
2023-05-13T02:50:04.714Z,100322.28
2023-05-13T02:50:36.223Z,100317.69
2023-05-13T02:51:07.711Z,100326.38
2023-05-13T02:51:39.139Z,100319.31
2023-05-13T02:52:10.591Z,100322.31
2023-05-13T02:52:42.003Z,100319.03
2023-05-13T02:53:13.455Z,100317.13
2023-05-13T02:53:44.972Z,100318.44
2023-05-13T02:54:16.384Z,100321.19
2023-05-13T02:54:47.939Z,100317.97
2023-05-13T02:55:19.526Z,100317.69
2023-05-13T02:55:51.149Z,100316.06
2023-05-13T02:56:22.584Z,100318.78
2023-05-13T02:56:54.081Z,100323.41
2023-05-13T02:57:25.544Z,100322.56
2023-05-13T02:57:57.034Z,100315.22
2023-05-13T02:58:28.474Z,100310.59
2023-05-13T02:58:59.871Z,100315.50
2023-05-13T02:59:31.288Z,100313.31
2023-05-13T03:00:02.747Z,100319.31
2023-05-13T03:00:34.142Z,100320.38
2023-05-13T03:01:05.616Z,100323.13
2023-05-13T03:01:37.158Z,100311.44
2023-05-13T03:02:08.654Z,100314.44
2023-05-13T03:02:40.247Z,100321.75
2023-05-13T03:03:11.821Z,100314.97
2023-05-13T03:03:43.335Z,100321.22
2023-05-13T03:04:14.886Z,100322.56
2023-05-13T03:04:46.358Z,100319.88
2023-05-13T03:05:17.802Z,100316.63
2023-05-13T03:05:49.243Z,100317.97
2023-05-13T03:06:20.739Z,100321.22
2023-05-13T03:06:54.704Z,100323.69
2023-05-13T03:07:26.158Z,100323.97
2023-05-13T03:07:57.644Z,100315.00
2023-05-13T03:08:29.167Z,100319.59
2023-05-13T03:09:00.598Z,100321.78
2023-05-13T03:09:32.045Z,100325.31
2023-05-13T03:10:03.605Z,100320.16
2023-05-13T03:10:35.030Z,100325.31
2023-05-13T03:11:06.469Z,100320.69
2023-05-13T03:11:37.974Z,100316.34
2023-05-13T03:12:09.384Z,100319.88
2023-05-13T03:12:40.859Z,100316.59
2023-05-13T03:13:12.303Z,100319.59
2023-05-13T03:13:43.775Z,100318.25
2023-05-13T03:14:15.187Z,100320.69
2023-05-13T03:14:46.606Z,100325.31
2023-05-13T03:15:18.015Z,100319.06
2023-05-13T03:15:49.470Z,100326.41
2023-05-13T03:16:22.952Z,100319.63
2023-05-13T03:16:54.480Z,100329.69
2023-05-13T03:17:25.916Z,100330.75
2023-05-13T03:17:57.406Z,100331.88
2023-05-13T03:18:28.913Z,100330.75
2023-05-13T03:19:00.437Z,100330.22
2023-05-13T03:19:35.105Z,100331.31
2023-05-13T03:20:06.644Z,100325.03
2023-05-13T03:20:38.117Z,100328.88
2023-05-13T03:21:09.554Z,100330.50
2023-05-13T03:21:41.034Z,100332.94
2023-05-13T03:22:12.541Z,100340.28
2023-05-13T03:22:43.981Z,100334.03
2023-05-13T03:23:15.489Z,100334.31
2023-05-13T03:23:46.906Z,100330.50
2023-05-13T03:24:18.377Z,100326.44
2023-05-13T03:24:49.856Z,100333.75
2023-05-13T03:25:21.312Z,100328.59
2023-05-13T03:25:52.733Z,100329.13
2023-05-13T03:26:24.187Z,100319.63
2023-05-13T03:26:55.708Z,100328.59
2023-05-13T03:27:27.256Z,100327.50
2023-05-13T03:27:58.711Z,100326.94
2023-05-13T03:28:30.112Z,100331.03
2023-05-13T03:29:01.609Z,100319.88
2023-05-13T03:29:33.024Z,100328.31
2023-05-13T03:30:04.468Z,100323.97
2023-05-13T03:30:35.938Z,100328.03
2023-05-13T03:31:07.365Z,100325.88
2023-05-13T03:31:38.858Z,100325.03
2023-05-13T03:32:10.333Z,100321.53
2023-05-13T03:32:41.867Z,100328.59
2023-05-13T03:33:13.327Z,100326.97
2023-05-13T03:33:44.711Z,100328.88
2023-05-13T03:34:16.118Z,100322.34
2023-05-13T03:34:47.702Z,100329.66
2023-05-13T03:35:19.130Z,100324.50
2023-05-13T03:35:50.556Z,100335.13
2023-05-13T03:36:22.022Z,100332.13
2023-05-13T03:36:53.398Z,100329.41
2023-05-13T03:37:25.009Z,100338.38
2023-05-13T03:37:56.558Z,100331.88
2023-05-13T03:38:27.982Z,100330.75
2023-05-13T03:38:59.409Z,100333.47
2023-05-13T03:39:30.798Z,100330.22
2023-05-13T03:40:02.324Z,100336.75
2023-05-13T03:40:33.814Z,100329.13
2023-05-13T03:41:05.293Z,100331.59
2023-05-13T03:41:36.737Z,100335.38
2023-05-13T03:42:08.169Z,100336.75
2023-05-13T03:42:39.575Z,100329.13
2023-05-13T03:43:11.094Z,100330.78
2023-05-13T03:43:42.542Z,100330.22
2023-05-13T03:44:13.949Z,100328.84
2023-05-13T03:44:45.344Z,100332.09
2023-05-13T03:45:16.767Z,100327.19
2023-05-13T03:45:48.281Z,100326.13
2023-05-13T03:46:19.812Z,100329.94
2023-05-13T03:46:51.305Z,100326.41
2023-05-13T03:47:22.842Z,100329.66
2023-05-13T03:47:54.265Z,100335.38
2023-05-13T03:48:25.740Z,100337.56
2023-05-13T03:48:57.273Z,100333.47
2023-05-13T03:49:28.741Z,100330.22
2023-05-13T03:50:00.233Z,100332.09
2023-05-13T03:50:31.772Z,100332.91
2023-05-13T03:51:03.202Z,100327.47
2023-05-13T03:51:34.637Z,100335.63
2023-05-13T03:52:06.131Z,100334.03
2023-05-13T03:52:37.578Z,100331.03
2023-05-13T03:53:09.072Z,100332.94
2023-05-13T03:53:40.535Z,100322.88
2023-05-13T03:54:12.062Z,100328.84
2023-05-13T03:54:43.468Z,100332.09
2023-05-13T03:55:15.205Z,100328.56
2023-05-13T03:55:46.713Z,100329.41
2023-05-13T03:56:18.242Z,100326.41
2023-05-13T03:56:49.684Z,100320.41
2023-05-13T03:57:21.159Z,100327.47
2023-05-13T03:57:52.597Z,100330.22
2023-05-13T03:58:24.043Z,100329.66
2023-05-13T03:58:58.095Z,100327.47
2023-05-13T03:59:29.533Z,100326.13
2023-05-13T04:00:01.006Z,100323.94
2023-05-13T04:00:32.450Z,100323.69
2023-05-13T04:01:03.867Z,100323.13
2023-05-13T04:01:35.284Z,100325.28
2023-05-13T04:02:06.734Z,100327.75
2023-05-13T04:02:38.574Z,100325.31
2023-05-13T04:03:10.217Z,100323.41
2023-05-13T04:03:41.685Z,100327.75
2023-05-13T04:04:13.110Z,100325.56
2023-05-13T04:04:44.592Z,100325.28
2023-05-13T04:05:16.138Z,100323.13
2023-05-13T04:05:47.729Z,100320.69
2023-05-13T04:06:19.150Z,100327.75
2023-05-13T04:06:50.642Z,100323.13
2023-05-13T04:07:22.098Z,100325.00
2023-05-13T04:07:53.504Z,100325.00
2023-05-13T04:08:25.434Z,100329.38
2023-05-13T04:08:56.875Z,100328.84
2023-05-13T04:09:28.369Z,100330.47
2023-05-13T04:09:59.864Z,100329.38
2023-05-13T04:10:31.288Z,100331.03
2023-05-13T04:11:02.820Z,100330.19
2023-05-13T04:11:34.318Z,100332.63
2023-05-13T04:12:05.737Z,100332.38
2023-05-13T04:12:37.270Z,100334.56
2023-05-13T04:13:08.687Z,100335.63
2023-05-13T04:13:40.241Z,100335.63
2023-05-13T04:14:11.654Z,100333.75
2023-05-13T04:14:43.113Z,100335.63
2023-05-13T04:15:14.538Z,100337.28
2023-05-13T04:15:49.208Z,100335.91
2023-05-13T04:16:20.712Z,100337.28
2023-05-13T04:16:52.296Z,100336.72
2023-05-13T04:17:23.809Z,100348.97
2023-05-13T04:17:55.378Z,100339.44
2023-05-13T04:18:27.056Z,100340.53
2023-05-13T04:18:58.643Z,100338.34
2023-05-13T04:19:30.161Z,100344.06
2023-05-13T04:20:01.691Z,100332.91
2023-05-13T04:20:33.088Z,100337.78
2023-05-13T04:21:04.568Z,100340.78
2023-05-13T04:21:36.025Z,100334.28
2023-05-13T04:22:07.507Z,100335.91
2023-05-13T04:22:39.030Z,100338.06
2023-05-13T04:23:10.523Z,100336.44
2023-05-13T04:23:42.046Z,100335.88
2023-05-13T04:24:13.494Z,100341.63
2023-05-13T04:24:44.930Z,100339.97
2023-05-13T04:25:16.332Z,100333.44
2023-05-13T04:25:47.773Z,100336.16
2023-05-13T04:26:19.221Z,100341.59
2023-05-13T04:26:50.715Z,100334.81
2023-05-13T04:27:22.184Z,100339.72
2023-05-13T04:27:53.607Z,100340.81
2023-05-13T04:28:25.041Z,100341.91
2023-05-13T04:28:56.586Z,100340.53
2023-05-13T04:29:27.985Z,100343.78
2023-05-13T04:29:59.376Z,100341.63
2023-05-13T04:30:30.839Z,100338.34
2023-05-13T04:31:02.242Z,100338.88
2023-05-13T04:31:33.734Z,100335.06
2023-05-13T04:32:05.294Z,100337.50
2023-05-13T04:32:36.819Z,100345.13
2023-05-13T04:33:08.415Z,100343.50
2023-05-13T04:33:40.042Z,100340.53
2023-05-13T04:34:11.471Z,100342.72
2023-05-13T04:34:43.047Z,100339.72
2023-05-13T04:35:14.472Z,100346.50
2023-05-13T04:35:48.661Z,100345.66
2023-05-13T04:36:20.066Z,100345.94
2023-05-13T04:36:54.466Z,100347.59
2023-05-13T04:37:25.972Z,100349.19
2023-05-13T04:37:57.401Z,100345.13
2023-05-13T04:38:28.850Z,100348.38
2023-05-13T04:39:00.281Z,100345.69
2023-05-13T04:39:31.741Z,100348.41
2023-05-13T04:40:03.225Z,100353.28
2023-05-13T04:40:34.641Z,100351.94
2023-05-13T04:41:06.044Z,100356.56
2023-05-13T04:41:37.476Z,100353.03
2023-05-13T04:42:08.952Z,100348.69
2023-05-13T04:42:40.351Z,100351.41
2023-05-13T04:43:11.845Z,100353.31
2023-05-13T04:43:43.335Z,100358.19
2023-05-13T04:44:14.842Z,100355.47
2023-05-13T04:44:46.287Z,100356.84
2023-05-13T04:45:17.746Z,100361.16
2023-05-13T04:45:49.168Z,100360.63
2023-05-13T04:46:20.574Z,100355.75
2023-05-13T04:46:52.084Z,100358.47
2023-05-13T04:47:23.562Z,100355.47
2023-05-13T04:47:57.663Z,100359.28
2023-05-13T04:48:30.129Z,100362.25
2023-05-13T04:49:02.118Z,100352.47
2023-05-13T04:49:34.008Z,100352.47
2023-05-13T04:50:06.011Z,100357.38
2023-05-13T04:50:38.023Z,100353.28
2023-05-13T04:51:10.090Z,100357.91
2023-05-13T04:51:41.916Z,100361.72
2023-05-13T04:52:13.705Z,100364.72
2023-05-13T04:52:45.237Z,100363.09
2023-05-13T04:53:16.639Z,100375.59
2023-05-13T04:53:48.177Z,100371.50
2023-05-13T04:54:25.122Z,100378.84
2023-05-13T04:54:56.535Z,100381.28
2023-05-13T04:55:28.073Z,100379.38
2023-05-13T04:55:59.616Z,100379.91
2023-05-13T04:56:31.140Z,100378.84
2023-05-13T04:57:02.583Z,100377.47
2023-05-13T04:57:36.087Z,100371.75
2023-05-13T04:58:07.633Z,100380.19
2023-05-13T04:58:39.199Z,100379.66
2023-05-13T04:59:10.723Z,100369.31
2023-05-13T04:59:42.140Z,100371.47
2023-05-13T05:00:13.537Z,100374.69
2023-05-13T05:00:44.993Z,100377.47
2023-05-13T05:01:16.460Z,100378.81
2023-05-13T05:01:47.999Z,100378.84
2023-05-13T05:02:19.469Z,100379.09
2023-05-13T05:02:51.038Z,100385.34
2023-05-13T05:03:22.608Z,100379.38
2023-05-13T05:03:54.103Z,100383.47
2023-05-13T05:04:25.624Z,100376.66
2023-05-13T05:04:57.084Z,100387.78
2023-05-13T05:05:28.565Z,100373.41
2023-05-13T05:06:02.611Z,100378.00
2023-05-13T05:06:34.100Z,100376.38
2023-05-13T05:07:08.172Z,100373.09
2023-05-13T05:07:39.563Z,100381.81
2023-05-13T05:08:11.078Z,100374.47
2023-05-13T05:08:42.634Z,100376.94
2023-05-13T05:09:14.182Z,100371.22
2023-05-13T05:09:45.705Z,100362.53
2023-05-13T05:10:17.157Z,100360.88
2023-05-13T05:10:48.707Z,100365.78
2023-05-13T05:11:20.201Z,100359.25
2023-05-13T05:11:51.690Z,100366.31
2023-05-13T05:12:23.090Z,100367.69
2023-05-13T05:12:54.499Z,100369.31
2023-05-13T05:13:25.904Z,100364.97
2023-05-13T05:13:57.326Z,100364.13
2023-05-13T05:14:28.779Z,100369.03
2023-05-13T05:15:00.343Z,100364.97
2023-05-13T05:15:31.754Z,100360.06
2023-05-13T05:16:03.168Z,100361.16
2023-05-13T05:16:34.584Z,100360.09
2023-05-13T05:17:06.110Z,100361.72
2023-05-13T05:17:37.608Z,100362.25
2023-05-13T05:18:09.141Z,100356.28
2023-05-13T05:18:40.824Z,100351.91
2023-05-13T05:19:12.311Z,100354.91
2023-05-13T05:19:43.788Z,100347.28
2023-05-13T05:20:15.294Z,100351.09
2023-05-13T05:20:46.738Z,100359.78
2023-05-13T05:21:18.193Z,100350.81
2023-05-13T05:21:49.761Z,100358.44
2023-05-13T05:22:21.166Z,100359.25
2023-05-13T05:22:52.592Z,100353.25
2023-05-13T05:23:24.088Z,100354.34
2023-05-13T05:23:55.470Z,100353.53
2023-05-13T05:24:26.881Z,100358.44
2023-05-13T05:24:58.295Z,100358.16
2023-05-13T05:25:29.792Z,100364.41
2023-05-13T05:26:11.098Z,100360.88
2023-05-13T05:26:43.673Z,100360.59
2023-05-13T05:27:15.093Z,100366.06
2023-05-13T05:27:46.503Z,100368.78
2023-05-13T05:28:17.908Z,100366.91
2023-05-13T05:28:52.147Z,100365.25
2023-05-13T05:29:23.560Z,100376.38
2023-05-13T05:29:55.049Z,100382.38
2023-05-13T05:30:26.527Z,100380.19
2023-05-13T05:30:57.966Z,100384.56
2023-05-13T05:31:29.491Z,100378.31
2023-05-13T05:32:01.077Z,100385.09
2023-05-13T05:32:32.714Z,100386.16
2023-05-13T05:33:04.438Z,100379.91
2023-05-13T05:33:35.982Z,100382.84
2023-05-13T05:34:07.709Z,100381.25
2023-05-13T05:34:39.386Z,100380.19
2023-05-13T05:35:11.049Z,100388.88
2023-05-13T05:35:42.536Z,100384.50
2023-05-13T05:36:14.081Z,100386.66
2023-05-13T05:36:45.509Z,100380.94
2023-05-13T05:37:17.018Z,100388.34
2023-05-13T05:37:48.531Z,100374.19
2023-05-13T05:38:19.997Z,100387.53
2023-05-13T05:38:51.575Z,100387.53
2023-05-13T05:39:23.131Z,100393.72
2023-05-13T05:39:54.556Z,100359.25
2023-05-13T05:40:25.996Z,100353.84
2023-05-13T05:40:57.422Z,100330.69
2023-05-13T05:41:28.868Z,100329.09
2023-05-13T05:42:00.274Z,100342.69
2023-05-13T05:42:31.791Z,100372.56
2023-05-13T05:43:03.212Z,100375.56
2023-05-13T05:43:34.651Z,100374.78
2023-05-13T05:44:06.090Z,100369.03
2023-05-13T05:44:37.569Z,100366.03
2023-05-13T05:45:09.069Z,100362.25
2023-05-13T05:45:40.632Z,100364.97
2023-05-13T05:46:12.239Z,100362.53
2023-05-13T05:46:43.786Z,100369.31
2023-05-13T05:47:15.259Z,100364.41
2023-05-13T05:47:46.796Z,100362.78
2023-05-13T05:48:18.421Z,100362.81
2023-05-13T05:48:49.861Z,100359.28
2023-05-13T05:49:21.366Z,100359.00
2023-05-13T05:49:52.797Z,100355.75
2023-05-13T05:50:24.277Z,100351.09
2023-05-13T05:50:55.718Z,100352.72
2023-05-13T05:51:27.114Z,100360.09
2023-05-13T05:51:58.515Z,100365.53
2023-05-13T05:52:30.056Z,100367.97
2023-05-13T05:53:01.475Z,100363.88
2023-05-13T05:53:33.086Z,100368.22
2023-05-13T05:54:04.513Z,100374.22
2023-05-13T05:54:35.931Z,100373.41
2023-05-13T05:55:07.352Z,100376.94
2023-05-13T05:55:38.778Z,100384.28
2023-05-13T05:56:10.159Z,100377.19
2023-05-13T05:56:41.645Z,100384.28
2023-05-13T05:57:13.086Z,100387.56
2023-05-13T05:57:44.524Z,100385.66
2023-05-13T05:58:17.439Z,100383.50
2023-05-13T05:58:49.053Z,100388.66
2023-05-13T05:59:20.462Z,100390.03
2023-05-13T05:59:51.936Z,100383.50
2023-05-13T06:00:23.600Z,100383.50
2023-05-13T06:00:55.167Z,100377.25
2023-05-13T06:01:26.629Z,100392.47
2023-05-13T06:01:58.130Z,100400.63
2023-05-13T06:02:29.719Z,100401.47
2023-05-13T06:03:01.341Z,100397.09
2023-05-13T06:03:32.923Z,100408.53
2023-05-13T06:04:04.708Z,100404.97
2023-05-13T06:04:36.258Z,100406.09
2023-05-13T06:05:07.809Z,100404.72
2023-05-13T06:05:39.239Z,100394.91
2023-05-13T06:06:10.676Z,100399.25
2023-05-13T06:06:42.195Z,100394.91
2023-05-13T06:07:13.688Z,100393.03
2023-05-13T06:07:45.165Z,100400.88
2023-05-13T06:08:16.551Z,100396.81
2023-05-13T06:08:47.955Z,100403.59
2023-05-13T06:09:19.523Z,100400.88
2023-05-13T06:09:50.942Z,100402.78
2023-05-13T06:10:22.643Z,100405.25